createdAt,value
2018-03-01T00:01:13.038Z,70.70
2018-03-01T00:03:40.748Z,70.08
2018-03-01T00:06:08.497Z,70.27
2018-03-01T00:08:36.212Z,69.83
2018-03-01T00:11:03.890Z,70.05
2018-03-01T00:13:31.748Z,70.05
2018-03-01T00:15:59.431Z,70.37
2018-03-01T00:18:27.118Z,70.33
2018-03-01T00:20:54.870Z,70.17
2018-03-01T00:23:22.572Z,69.97
2018-03-01T00:25:50.300Z,70.08
2018-03-01T00:28:18.132Z,69.74
2018-03-01T00:30:46.014Z,69.89
2018-03-01T00:33:13.791Z,70.21
2018-03-01T00:35:41.465Z,70.36
2018-03-01T00:38:09.136Z,69.56
2018-03-01T00:40:36.814Z,69.62
2018-03-01T00:43:04.536Z,69.61
2018-03-01T00:45:32.369Z,69.97
2018-03-01T00:48:00.042Z,69.60
2018-03-01T00:50:28.027Z,69.95
2018-03-01T00:52:55.685Z,69.82
2018-03-01T00:55:23.481Z,69.22
2018-03-01T00:57:51.128Z,69.97
2018-03-01T01:00:18.814Z,70.06
2018-03-01T01:02:46.409Z,69.66
2018-03-01T01:05:14.236Z,69.56
2018-03-01T01:07:42.025Z,69.68
2018-03-01T01:10:09.797Z,69.44
2018-03-01T01:12:37.560Z,69.19
2018-03-01T01:15:05.157Z,69.12
2018-03-01T01:17:32.757Z,69.98
2018-03-01T01:20:00.644Z,69.25
2018-03-01T01:22:28.292Z,69.40
2018-03-01T01:24:55.877Z,69.04
2018-03-01T01:27:23.472Z,69.20
2018-03-01T01:29:51.195Z,68.98
2018-03-01T01:32:19.022Z,69.27
2018-03-01T01:34:46.797Z,68.93
2018-03-01T01:37:14.524Z,69.05
2018-03-01T01:39:42.353Z,69.19
2018-03-01T01:42:10.018Z,69.00
2018-03-01T01:44:37.700Z,68.87
2018-03-01T01:47:05.347Z,68.88
2018-03-01T01:49:33.037Z,69.35
2018-03-01T01:52:00.672Z,69.71
2018-03-01T01:54:28.284Z,69.31
2018-03-01T01:56:56.077Z,69.16
2018-03-01T01:59:23.725Z,69.13
2018-03-01T02:01:51.387Z,69.27
2018-03-01T02:04:18.961Z,69.05
2018-03-01T02:06:46.777Z,68.84
2018-03-01T02:09:14.508Z,69.06
2018-03-01T02:11:42.234Z,69.09
2018-03-01T02:14:09.825Z,69.01
2018-03-01T02:16:37.534Z,69.56
2018-03-01T02:19:05.358Z,69.17
2018-03-01T02:21:32.978Z,68.91
2018-03-01T02:24:00.709Z,69.28
2018-03-01T02:26:28.491Z,69.11
2018-03-01T02:28:56.163Z,69.30
2018-03-01T02:31:23.840Z,69.53
2018-03-01T02:33:51.620Z,69.37
2018-03-01T02:36:31.272Z,69.41
2018-03-01T02:38:59.000Z,69.62
2018-03-01T02:41:26.730Z,69.30
2018-03-01T02:43:54.394Z,69.75
2018-03-01T02:46:21.984Z,69.71
2018-03-01T02:48:49.714Z,69.42
2018-03-01T02:51:17.537Z,69.75
2018-03-01T02:53:45.199Z,69.38
2018-03-01T02:56:12.878Z,69.85
2018-03-01T02:58:40.865Z,69.62
2018-03-01T03:01:08.540Z,70.17
2018-03-01T03:03:36.140Z,70.18
2018-03-01T03:06:03.800Z,69.82
2018-03-01T03:08:31.460Z,70.02
2018-03-01T03:10:59.140Z,69.89
2018-03-01T03:13:27.020Z,70.06
2018-03-01T03:15:54.693Z,70.39
2018-03-01T03:18:22.288Z,70.23
2018-03-01T03:20:50.126Z,69.97
2018-03-01T03:23:17.718Z,70.00
2018-03-01T03:25:45.388Z,69.96
2018-03-01T03:28:13.068Z,70.19
2018-03-01T03:30:40.732Z,70.27
2018-03-01T03:33:08.359Z,70.37
2018-03-01T03:35:36.199Z,70.22
2018-03-01T03:38:03.789Z,70.19
2018-03-01T03:40:31.548Z,70.26
2018-03-01T03:42:59.321Z,70.50
2018-03-01T03:45:26.990Z,70.54
2018-03-01T03:47:54.728Z,70.72
2018-03-01T03:50:22.555Z,70.67
2018-03-01T03:52:50.336Z,70.80
2018-03-01T03:55:18.002Z,70.70
2018-03-01T03:57:45.641Z,70.36
2018-03-01T04:00:13.357Z,70.25
2018-03-01T04:02:41.033Z,70.44
2018-03-01T04:05:08.681Z,70.21
2018-03-01T04:07:36.375Z,70.42
2018-03-01T04:10:04.052Z,70.08
2018-03-01T04:12:31.688Z,70.13
2018-03-01T04:14:59.398Z,70.42
2018-03-01T04:17:27.192Z,70.14
2018-03-01T04:19:54.853Z,70.20
2018-03-01T04:22:22.648Z,70.04
2018-03-01T04:24:50.415Z,70.10
2018-03-01T04:27:18.023Z,70.11
2018-03-01T04:29:45.980Z,70.17
2018-03-01T04:32:13.650Z,70.24
2018-03-01T04:34:41.413Z,70.16
2018-03-01T04:37:09.102Z,70.73
2018-03-01T04:39:36.700Z,70.45
2018-03-01T04:42:04.444Z,70.22
2018-03-01T04:44:32.122Z,70.44
2018-03-01T04:46:59.870Z,70.18
2018-03-01T04:49:27.527Z,70.65
2018-03-01T04:51:55.228Z,70.20
2018-03-01T04:54:22.841Z,70.52
2018-03-01T04:56:50.601Z,70.45
2018-03-01T04:59:18.203Z,70.49
2018-03-01T05:01:45.947Z,70.76
2018-03-01T05:04:13.843Z,70.83
2018-03-01T05:06:41.615Z,71.19
2018-03-01T05:09:09.397Z,70.45
2018-03-01T05:11:37.233Z,70.72
2018-03-01T05:14:04.852Z,70.78
2018-03-01T05:16:32.626Z,70.82
2018-03-01T05:19:00.282Z,70.90
2018-03-01T05:21:27.882Z,70.99
2018-03-01T05:23:55.552Z,71.33
2018-03-01T05:26:23.302Z,70.74
2018-03-01T05:28:51.006Z,70.97
2018-03-01T05:31:18.617Z,71.10
2018-03-01T05:33:46.465Z,70.81
2018-03-01T05:36:14.333Z,70.96
2018-03-01T05:38:41.985Z,70.71
2018-03-01T05:41:09.669Z,70.81
2018-03-01T05:43:37.464Z,70.43
2018-03-01T05:46:05.346Z,70.59
2018-03-01T05:48:33.008Z,70.51
2018-03-01T05:51:00.797Z,70.94
2018-03-01T05:53:28.581Z,70.63
2018-03-01T05:55:56.299Z,70.38
2018-03-01T05:58:23.889Z,70.79
2018-03-01T06:00:51.600Z,70.26
2018-03-01T06:03:19.274Z,70.54
2018-03-01T06:05:46.952Z,70.64
2018-03-01T06:08:14.826Z,70.46
2018-03-01T06:10:42.494Z,70.45
2018-03-01T06:13:10.180Z,70.27
2018-03-01T06:15:38.065Z,70.49
2018-03-01T06:18:05.653Z,70.06
2018-03-01T06:20:33.386Z,70.38
2018-03-01T06:23:01.193Z,69.93
2018-03-01T06:25:28.915Z,69.98
2018-03-01T06:27:56.892Z,70.25
2018-03-01T06:30:24.503Z,70.78
2018-03-01T06:32:52.156Z,70.12
2018-03-01T06:35:19.873Z,70.16
2018-03-01T06:37:47.548Z,70.32
2018-03-01T06:40:15.532Z,70.24
2018-03-01T06:42:43.208Z,70.47
2018-03-01T06:45:10.852Z,69.89
2018-03-01T06:47:38.752Z,69.96
2018-03-01T06:50:06.436Z,69.95
2018-03-01T06:52:34.215Z,69.98
2018-03-01T06:55:02.096Z,69.80
2018-03-01T06:57:29.773Z,69.79
2018-03-01T06:59:57.651Z,69.66
2018-03-01T07:02:25.328Z,69.66
2018-03-01T07:04:52.992Z,69.33
2018-03-01T07:07:20.793Z,68.79
2018-03-01T07:09:48.393Z,69.41
2018-03-01T07:12:16.121Z,68.84
2018-03-01T07:14:43.775Z,68.49
2018-03-01T07:17:11.478Z,68.51
2018-03-01T07:19:39.150Z,68.34
2018-03-01T07:22:06.825Z,68.22
2018-03-01T07:24:34.710Z,68.37
2018-03-01T07:27:02.450Z,67.72
2018-03-01T07:29:30.164Z,67.66
2018-03-01T07:31:57.833Z,67.74
2018-03-01T07:34:25.539Z,67.33
2018-03-01T07:36:53.141Z,67.27
2018-03-01T07:39:20.863Z,67.28
2018-03-01T07:41:48.595Z,67.02
2018-03-01T07:44:16.239Z,66.57
2018-03-01T07:46:43.861Z,66.80
2018-03-01T07:49:11.669Z,66.11
2018-03-01T07:51:39.339Z,65.81
2018-03-01T07:54:07.031Z,65.97
2018-03-01T07:56:34.649Z,65.55
2018-03-01T07:59:02.320Z,65.65
2018-03-01T08:01:30.037Z,65.39
2018-03-01T08:03:57.721Z,65.44
2018-03-01T08:06:25.389Z,65.12
2018-03-01T08:08:53.069Z,64.64
2018-03-01T08:11:20.715Z,64.53
2018-03-01T08:13:48.523Z,64.17
2018-03-01T08:16:16.244Z,64.59
2018-03-01T08:18:43.961Z,64.61
2018-03-01T08:21:11.760Z,64.62
2018-03-01T08:23:39.430Z,64.23
2018-03-01T08:26:07.063Z,62.89
2018-03-01T08:28:34.883Z,62.47
2018-03-01T08:31:02.551Z,62.75
2018-03-01T08:33:30.143Z,62.52
2018-03-01T08:35:57.722Z,61.58
2018-03-01T08:38:25.332Z,61.47
2018-03-01T08:40:52.919Z,61.05
2018-03-01T08:43:20.628Z,61.04
2018-03-01T08:45:48.214Z,60.95
2018-03-01T08:48:15.976Z,60.47
2018-03-01T08:50:43.650Z,60.40
2018-03-01T08:53:11.243Z,60.63
2018-03-01T08:55:39.007Z,60.20
2018-03-01T08:58:06.889Z,60.63
2018-03-01T09:00:34.545Z,60.94
2018-03-01T09:03:02.276Z,60.56
2018-03-01T09:05:30.117Z,60.58
2018-03-01T09:07:57.787Z,60.52
2018-03-01T09:10:25.652Z,59.62
2018-03-01T09:12:53.394Z,60.17
2018-03-01T09:15:20.968Z,59.49
2018-03-01T09:17:48.615Z,58.94
2018-03-01T09:20:16.254Z,58.99
2018-03-01T09:22:44.043Z,58.66
2018-03-01T09:25:11.657Z,58.72
2018-03-01T09:27:39.288Z,58.98
2018-03-01T09:30:07.029Z,58.66
2018-03-01T09:32:34.610Z,58.30
2018-03-01T09:35:02.196Z,57.89
2018-03-01T09:37:29.993Z,57.40
2018-03-01T09:39:57.567Z,58.48
2018-03-01T09:42:25.147Z,57.98
2018-03-01T09:44:52.916Z,57.36
2018-03-01T09:47:20.501Z,57.86
2018-03-01T09:49:48.171Z,58.18
2018-03-01T09:52:15.761Z,57.76
2018-03-01T09:54:43.353Z,57.48
2018-03-01T09:57:11.081Z,57.46
2018-03-01T09:59:38.664Z,57.36
2018-03-01T10:02:06.324Z,57.13
2018-03-01T10:04:34.118Z,56.04
2018-03-01T10:07:02.119Z,55.69
2018-03-01T10:09:29.982Z,55.99
2018-03-01T10:11:57.643Z,56.44
2018-03-01T10:14:25.529Z,55.88
2018-03-01T10:16:53.306Z,56.29
2018-03-01T10:19:20.967Z,56.03
2018-03-01T10:21:48.658Z,56.14
2018-03-01T10:24:16.323Z,56.25
2018-03-01T10:26:44.004Z,56.25
2018-03-01T10:29:11.747Z,55.83
2018-03-01T10:31:39.357Z,55.77
2018-03-01T10:34:07.032Z,56.14
2018-03-01T10:36:34.710Z,55.68
2018-03-01T10:39:02.370Z,55.96
2018-03-01T10:41:30.165Z,55.47
2018-03-01T10:43:57.892Z,56.10
2018-03-01T10:46:25.520Z,55.34
2018-03-01T10:48:53.106Z,54.47
2018-03-01T10:51:20.818Z,54.86
2018-03-01T10:53:48.528Z,54.70
2018-03-01T10:56:16.317Z,54.32
2018-03-01T10:58:44.101Z,54.39
2018-03-01T11:01:17.192Z,54.56
2018-03-01T11:03:44.858Z,54.61
2018-03-01T11:06:12.549Z,54.70
2018-03-01T11:08:40.329Z,54.67
2018-03-01T11:11:08.069Z,54.59
2018-03-01T11:13:35.837Z,54.58
2018-03-01T11:16:03.413Z,54.14
2018-03-01T11:18:31.232Z,54.06
2018-03-01T11:20:59.006Z,53.84
2018-03-01T11:23:26.671Z,53.37
2018-03-01T11:25:54.293Z,53.66
2018-03-01T11:28:22.028Z,53.61
2018-03-01T11:30:49.737Z,53.11
2018-03-01T11:33:17.325Z,53.57
2018-03-01T11:35:45.165Z,53.24
2018-03-01T11:38:12.923Z,53.31
2018-03-01T11:40:40.610Z,53.47
2018-03-01T11:43:08.357Z,52.99
2018-03-01T11:45:36.070Z,52.59
2018-03-01T11:48:03.816Z,52.80
2018-03-01T11:50:31.548Z,52.58
2018-03-01T11:52:59.472Z,52.83
2018-03-01T11:55:27.172Z,53.67
2018-03-01T11:57:54.956Z,52.49
2018-03-01T12:00:22.736Z,51.99
2018-03-01T12:02:50.514Z,52.02
2018-03-01T12:05:18.293Z,52.12
2018-03-01T12:07:46.075Z,51.88
2018-03-01T12:10:13.954Z,51.60
2018-03-01T12:12:41.618Z,51.67
2018-03-01T12:15:09.241Z,51.45
2018-03-01T12:17:37.074Z,50.95
2018-03-01T12:20:04.749Z,50.75
2018-03-01T12:22:32.441Z,51.21
2018-03-01T12:25:00.304Z,50.31
2018-03-01T12:27:27.973Z,50.56
2018-03-01T12:29:55.756Z,51.72
2018-03-01T12:32:23.537Z,51.18
2018-03-01T12:34:51.153Z,50.79
2018-03-01T12:37:18.884Z,49.24
2018-03-01T12:39:46.629Z,49.82
2018-03-01T12:42:14.332Z,49.24
2018-03-01T12:44:41.938Z,50.26
2018-03-01T12:47:09.797Z,49.70
2018-03-01T12:49:37.679Z,49.68
2018-03-01T12:52:05.406Z,49.55
2018-03-01T12:54:33.130Z,49.51
2018-03-01T12:57:00.743Z,49.71
2018-03-01T12:59:28.486Z,49.81
2018-03-01T13:01:56.248Z,49.94
2018-03-01T13:04:39.794Z,48.92
2018-03-01T13:07:07.583Z,49.43
2018-03-01T13:09:35.325Z,49.33
2018-03-01T13:12:03.131Z,49.87
2018-03-01T13:14:30.903Z,49.36
2018-03-01T13:16:58.524Z,49.22
2018-03-01T13:19:26.172Z,49.45
2018-03-01T13:21:53.838Z,49.62
2018-03-01T13:24:21.512Z,50.47
2018-03-01T13:26:49.289Z,49.88
2018-03-01T13:29:17.074Z,50.66
2018-03-01T13:34:49.187Z,49.07
2018-03-01T13:37:16.958Z,49.11
2018-03-01T13:39:44.735Z,49.47
2018-03-01T13:42:27.272Z,48.79
2018-03-01T13:44:54.885Z,48.80
2018-03-01T13:50:21.630Z,48.73
2018-03-01T13:52:49.510Z,48.65
2018-03-01T13:55:17.179Z,48.27
2018-03-01T13:57:44.844Z,48.66
2018-03-01T14:00:12.634Z,48.01
2018-03-01T14:02:40.513Z,48.16
2018-03-01T14:05:08.297Z,48.05
2018-03-01T14:07:40.562Z,48.32
2018-03-01T14:10:08.253Z,47.79
2018-03-01T14:12:40.693Z,48.13
2018-03-01T14:15:08.521Z,47.79
2018-03-01T14:17:51.038Z,48.29
2018-03-01T14:23:24.025Z,48.01
2018-03-01T14:25:53.189Z,48.72
2018-03-01T14:31:23.154Z,48.41
2018-03-01T14:33:51.032Z,48.70
2018-03-01T14:36:18.900Z,49.22
2018-03-01T14:38:46.677Z,49.00
2018-03-01T14:41:14.417Z,48.91
2018-03-01T14:43:42.140Z,48.76
2018-03-01T14:46:09.815Z,48.95
2018-03-01T14:48:37.484Z,48.70
2018-03-01T14:51:05.278Z,49.03
2018-03-01T14:53:33.049Z,48.93
2018-03-01T14:56:00.823Z,48.75
2018-03-01T14:58:28.603Z,48.44
2018-03-01T15:00:56.380Z,48.70
2018-03-01T15:03:24.163Z,48.48
2018-03-01T15:05:52.037Z,48.74
2018-03-01T15:08:19.646Z,48.91
2018-03-01T15:10:47.497Z,48.48
2018-03-01T15:13:15.092Z,48.47
2018-03-01T15:15:42.738Z,48.34
2018-03-01T15:18:10.508Z,48.57
2018-03-01T15:20:38.189Z,48.51
2018-03-01T15:23:06.078Z,48.35
2018-03-01T15:25:33.931Z,48.41
2018-03-01T15:28:01.642Z,48.10
2018-03-01T15:30:29.228Z,48.39
2018-03-01T15:32:57.187Z,48.76
2018-03-01T15:35:24.963Z,48.91
2018-03-01T15:37:52.545Z,48.99
2018-03-01T15:40:20.217Z,48.89
2018-03-01T15:42:47.812Z,49.26
2018-03-01T15:45:15.451Z,49.19
2018-03-01T15:47:43.127Z,49.85
2018-03-01T15:50:10.910Z,49.69
2018-03-01T15:52:38.690Z,49.80
2018-03-01T15:55:06.362Z,50.54
2018-03-01T15:57:34.030Z,49.99
2018-03-01T16:00:01.816Z,49.88
2018-03-01T16:02:29.400Z,50.27
2018-03-01T16:04:57.065Z,49.58
2018-03-01T16:07:24.714Z,49.65
2018-03-01T16:09:52.300Z,49.68
2018-03-01T16:12:19.984Z,49.94
2018-03-01T16:14:47.650Z,50.24
2018-03-01T16:17:15.336Z,50.06
2018-03-01T16:19:43.012Z,50.16
2018-03-01T16:22:10.656Z,50.35
2018-03-01T16:24:38.474Z,50.51
2018-03-01T16:27:06.214Z,50.88
2018-03-01T16:29:33.916Z,50.84
2018-03-01T16:32:01.595Z,50.78
2018-03-01T16:34:29.194Z,51.10
2018-03-01T16:36:56.835Z,51.75
2018-03-01T16:39:24.630Z,51.13
2018-03-01T16:41:52.502Z,51.35
2018-03-01T16:44:20.281Z,51.38
2018-03-01T16:46:48.058Z,51.42
2018-03-01T16:49:15.718Z,51.85
2018-03-01T16:51:43.615Z,51.74
2018-03-01T16:54:11.388Z,52.02
2018-03-01T16:56:39.066Z,51.86
2018-03-01T16:59:06.738Z,52.01
2018-03-01T17:01:34.380Z,52.35
2018-03-01T17:04:02.091Z,52.36
2018-03-01T17:06:29.768Z,52.82
2018-03-01T17:08:57.545Z,52.72
2018-03-01T17:11:25.323Z,52.66
2018-03-01T17:13:52.980Z,52.58
2018-03-01T17:16:20.593Z,53.42
2018-03-01T17:18:48.245Z,52.98
2018-03-01T17:21:16.024Z,53.21
2018-03-01T17:23:43.652Z,53.30
2018-03-01T17:26:11.367Z,53.48
2018-03-01T17:28:39.161Z,53.75
2018-03-01T17:31:06.887Z,53.74
2018-03-01T17:33:34.602Z,54.40
2018-03-01T17:36:02.279Z,54.35
2018-03-01T17:38:29.954Z,54.50
2018-03-01T17:40:57.697Z,54.45
2018-03-01T17:43:25.513Z,54.79
2018-03-01T17:45:53.390Z,55.53
2018-03-01T17:48:21.171Z,55.75
2018-03-01T17:50:48.767Z,55.77
2018-03-01T17:53:16.411Z,55.74
2018-03-01T17:55:44.146Z,55.98
2018-03-01T17:58:11.877Z,56.19
2018-03-01T18:00:39.632Z,56.32
2018-03-01T18:03:07.205Z,56.62
2018-03-01T18:05:34.896Z,56.96
2018-03-01T18:08:02.777Z,56.93
2018-03-01T18:10:30.515Z,57.24
2018-03-01T18:12:58.332Z,57.15
2018-03-01T18:15:26.074Z,57.51
2018-03-01T18:17:53.890Z,57.60
2018-03-01T18:20:21.606Z,57.51
2018-03-01T18:22:49.245Z,57.64
2018-03-01T18:25:16.904Z,57.73
2018-03-01T18:27:44.572Z,58.05
2018-03-01T18:30:12.226Z,58.17
2018-03-01T18:32:39.938Z,58.40
2018-03-01T18:35:07.715Z,57.92
2018-03-01T18:37:35.492Z,58.47
2018-03-01T18:40:03.170Z,58.61
2018-03-01T18:42:30.944Z,58.64
2018-03-01T18:44:58.722Z,58.76
2018-03-01T18:47:26.433Z,58.85
2018-03-01T18:49:54.073Z,58.85
2018-03-01T18:52:21.652Z,58.99
2018-03-01T18:54:49.274Z,59.38
2018-03-01T18:57:17.000Z,59.07
2018-03-01T18:59:44.592Z,59.31
2018-03-01T19:02:12.457Z,59.61
2018-03-01T19:04:40.123Z,59.86
2018-03-01T19:07:07.791Z,59.80
2018-03-01T19:09:35.577Z,60.01
2018-03-01T19:12:03.353Z,59.95
2018-03-01T19:14:31.013Z,60.21
2018-03-01T19:16:58.602Z,60.22
2018-03-01T19:19:26.274Z,60.37
2018-03-01T19:21:54.076Z,60.25
2018-03-01T19:24:21.719Z,60.47
2018-03-01T19:26:49.410Z,60.60
2018-03-01T19:29:17.075Z,61.20
2018-03-01T19:31:44.831Z,60.84
2018-03-01T19:34:12.629Z,60.90
2018-03-01T19:36:40.228Z,60.75
2018-03-01T19:39:07.884Z,61.06
2018-03-01T19:41:35.666Z,60.90
2018-03-01T19:44:03.336Z,61.14
2018-03-01T19:46:31.116Z,61.08
2018-03-01T19:48:58.692Z,61.35
2018-03-01T19:51:26.364Z,61.20
2018-03-01T19:53:53.941Z,61.37
2018-03-01T19:56:21.724Z,61.44
2018-03-01T19:58:49.395Z,61.60
2018-03-01T20:01:17.079Z,61.59
2018-03-01T20:03:44.853Z,61.70
2018-03-01T20:06:12.507Z,61.75
2018-03-01T20:08:40.296Z,61.73
2018-03-01T20:11:08.078Z,61.93
2018-03-01T20:13:35.761Z,63.47
2018-03-01T20:16:03.428Z,61.74
2018-03-01T20:18:31.010Z,61.91
2018-03-01T20:20:58.675Z,62.02
2018-03-01T20:23:26.324Z,61.92
2018-03-01T20:25:54.015Z,62.08
2018-03-01T20:28:21.690Z,62.12
2018-03-01T20:30:49.377Z,62.13
2018-03-01T20:33:17.141Z,62.47
2018-03-01T20:35:44.949Z,62.40
2018-03-01T20:38:12.818Z,62.06
2018-03-01T20:40:40.485Z,62.01
2018-03-01T20:43:08.158Z,62.08
2018-03-01T20:45:35.733Z,62.35
2018-03-01T20:48:03.393Z,62.37
2018-03-01T20:50:31.105Z,62.52
2018-03-01T20:52:58.720Z,62.84
2018-03-01T20:55:26.541Z,62.64
2018-03-01T20:57:54.140Z,62.71
2018-03-01T21:00:21.891Z,62.22
2018-03-01T21:02:49.563Z,62.34
2018-03-01T21:05:17.294Z,62.41
2018-03-01T21:07:45.129Z,62.43
2018-03-01T21:10:12.706Z,62.52
2018-03-01T21:12:40.476Z,62.38
2018-03-01T21:15:08.092Z,62.66
2018-03-01T21:17:35.674Z,62.72
2018-03-01T21:20:03.570Z,62.54
2018-03-01T21:22:31.276Z,62.82
2018-03-01T21:24:58.865Z,62.75
2018-03-01T21:27:26.616Z,62.68
2018-03-01T21:29:54.191Z,62.24
2018-03-01T21:32:21.803Z,62.50
2018-03-01T21:34:49.437Z,62.18
2018-03-01T21:37:17.183Z,62.73
2018-03-01T21:39:44.797Z,62.66
2018-03-01T21:42:12.451Z,62.62
2018-03-01T21:44:40.151Z,62.67
2018-03-01T21:47:07.777Z,62.77
2018-03-01T21:49:35.382Z,62.50
2018-03-01T21:52:02.999Z,62.99
2018-03-01T21:54:30.640Z,63.06
2018-03-01T21:56:58.321Z,63.10
2018-03-01T21:59:26.097Z,63.05
2018-03-01T22:01:53.872Z,63.33
2018-03-01T22:04:21.445Z,62.97
2018-03-01T22:06:49.023Z,63.27
2018-03-01T22:09:16.699Z,63.10
2018-03-01T22:11:44.371Z,63.05
2018-03-01T22:14:11.953Z,63.13
2018-03-01T22:16:39.532Z,63.36
2018-03-01T22:19:07.300Z,63.23
2018-03-01T22:21:34.968Z,63.23
2018-03-01T22:24:02.753Z,63.45
2018-03-01T22:26:30.426Z,63.34
2018-03-01T22:28:58.101Z,63.21
2018-03-01T22:31:25.837Z,63.36
2018-03-01T22:33:53.479Z,63.59
2018-03-01T22:36:21.113Z,63.66
2018-03-01T22:38:48.806Z,63.70
2018-03-01T22:41:16.472Z,63.95
2018-03-01T22:43:44.141Z,64.04
2018-03-01T22:46:11.831Z,63.86
2018-03-01T22:48:39.422Z,64.04
2018-03-01T22:51:07.075Z,64.00
2018-03-01T22:53:34.754Z,63.88
2018-03-01T22:56:02.472Z,64.00
2018-03-01T22:58:30.095Z,64.16
2018-03-01T23:00:57.987Z,64.31
2018-03-01T23:03:25.568Z,64.12
2018-03-01T23:05:53.144Z,64.42
2018-03-01T23:08:20.798Z,64.59
2018-03-01T23:10:48.484Z,64.62
2018-03-01T23:13:16.061Z,64.67
2018-03-01T23:15:43.722Z,64.51
2018-03-01T23:18:11.567Z,64.88
2018-03-01T23:20:39.187Z,64.64
2018-03-01T23:23:06.928Z,65.04
2018-03-01T23:25:34.693Z,64.72
2018-03-01T23:28:02.519Z,64.82
2018-03-01T23:30:30.454Z,64.82
2018-03-01T23:32:58.073Z,64.83
2018-03-01T23:35:25.810Z,64.91
2018-03-01T23:37:53.420Z,65.24
2018-03-01T23:40:21.090Z,65.00
2018-03-01T23:42:48.773Z,65.20
2018-03-01T23:45:16.558Z,65.33
2018-03-01T23:47:44.142Z,65.28
2018-03-01T23:50:11.998Z,65.16
2018-03-01T23:52:39.785Z,65.16
2018-03-01T23:55:07.446Z,65.15
2018-03-01T23:57:35.124Z,65.21
